Have a Safe July 4th! 

Flight Track Log - Related Links

Times and Time Zones

All times are in EDT time to prevent confusion due to time zone crossing. See the RPA3247 flight status page for this flight to view local times or setup timezone preferences in your user account.

Time Position Orientation Groundspeed Altitude Reporting Facility
EDT Latitude Longitude Course Direction KTS MPH feet Rate Location/Type
Wed 08:16:34 PM 38.8000 -77.0333 233° Southwest 164 189 2,000  Level Potomac TRACON
Wed 08:17:34 PM 38.7667 -77.0500 201° Southwest 225 259 3,600 1,500 Climbing Potomac TRACON
Wed 08:18:00 PM 38.6852 -77.3463 237° Southwest  Level FlightAware Approximate
Wed 08:18:34 PM 38.7500 -77.1333 256° West 234 269 5,000  Level Potomac TRACON
Wed 08:19:00 PM 38.6266 -77.4494 234° Southwest  Level FlightAware Approximate
Wed 08:19:29 PM 38.7333 -77.2167 256° West 244 281 7,400  Level Potomac TRACON
Wed 08:20:00 PM 38.5841 -77.5642 247° West  Level FlightAware Approximate
Wed 08:20:23 PM 38.7333 -77.2833 270° West 253 291 9,700  Level Potomac TRACON
Wed 08:21:00 PM 38.5283 -77.6695 233° Southwest  Level FlightAware Approximate
Wed 08:21:29 PM 38.7167 -77.4000 260° West 275 316 12,900  Level Potomac TRACON
Wed 08:22:29 PM 38.6667 -77.4833 232° Southwest 292 336 14,800 2,150 Climbing Potomac TRACON
Wed 08:23:29 PM 38.6167 -77.5667 232° Southwest 304 350 17,200 2,000 Climbing Potomac TRACON
Wed 08:23:56 PM 38.5944 -77.5892 218° Southwest 300 345 17,700 2,069 Climbing Washington Center
Wed 08:24:56 PM 38.5431 -77.6728 232° Southwest 300 345 20,200 2,100 Climbing Washington Center
Wed 08:25:56 PM 38.4914 -77.7589 233° Southwest 300 345 21,900 1,550 Climbing Washington Center
Wed 08:26:56 PM 38.4419 -77.8528 236° Southwest 310 357 23,300 1,900 Climbing Washington Center
Wed 08:27:56 PM 38.3919 -77.9467 236° Southwest 323 372 25,700 1,450 Climbing Washington Center
Wed 08:28:56 PM 38.3444 -78.0406 237° Southwest 323 372 26,200 800 Climbing Washington Center
Wed 08:29:56 PM 38.2922 -78.1394 236° Southwest 328 377 27,300 1,100 Climbing Washington Center
Wed 08:30:56 PM 38.2339 -78.2378 233° Southwest 334 384 28,400 1,150 Climbing Washington Center
Wed 08:31:56 PM 38.1589 -78.3197 221° Southwest 347 399 29,600 1,150 Climbing Washington Center
Wed 08:32:56 PM 38.0819 -78.4014 220° Southwest 358 412 30,700 1,100 Climbing Washington Center
Wed 08:33:56 PM 38.0150 -78.4964 228° Southwest 365 420 31,800 650 Climbing Washington Center
Wed 08:34:56 PM 37.9728 -78.6028 243° Southwest 358 412 32,000 100 Climbing Washington Center
Wed 08:35:56 PM 37.9239 -78.7269 244° Southwest 358 412 32,000  Level Washington Center
Wed 08:36:56 PM 37.8792 -78.8383 243° Southwest 358 412 32,000  Level Washington Center
Wed 08:37:56 PM 37.8344 -78.9442 242° Southwest 358 412 32,000  Level Washington Center
Wed 08:38:56 PM 37.7897 -79.0553 243° Southwest 358 412 32,000  Level Washington Center
Wed 08:39:56 PM 37.7492 -79.1558 243° Southwest 364 419 32,000  Level Washington Center
Wed 08:40:56 PM 37.6975 -79.2767 242° Southwest 364 419 32,000  Level Washington Center
Wed 08:41:56 PM 37.6525 -79.3822 242° Southwest 358 412 32,000  Level Washington Center
Wed 08:42:56 PM 37.6072 -79.4925 243° Southwest 358 412 32,000  Level Washington Center
Wed 08:43:56 PM 37.5619 -79.6003 242° Southwest 358 412 32,000  Level Washington Center
Wed 08:44:56 PM 37.5167 -79.7078 242° Southwest 358 412 32,000  Level Washington Center
Wed 08:45:56 PM 37.4711 -79.8153 242° Southwest 353 406 32,000  Level Washington Center
Wed 08:46:56 PM 37.4278 -79.9175 242° Southwest 361 415 32,000  Level Washington Center
Wed 08:48:53 PM 37.3386 -80.1236 241° Southwest 361 415 32,000  Level Atlanta Center
Wed 08:49:53 PM 37.2881 -80.2408 242° Southwest 361 415 32,000  Level Atlanta Center
Wed 08:50:53 PM 37.2433 -80.3472 242° Southwest 361 415 32,000  Level Atlanta Center
Wed 08:51:53 PM 37.1967 -80.4564 242° Southwest 354 407 32,000  Level Atlanta Center
Wed 08:52:53 PM 37.1517 -80.5600 241° Southwest 354 407 32,000  Level Atlanta Center
Wed 08:53:53 PM 37.1106 -80.6553 242° Southwest 354 407 32,000  Level Atlanta Center
Wed 08:54:53 PM 37.0678 -80.7639 244° Southwest 354 407 32,000  Level Atlanta Center
Wed 08:55:53 PM 37.0267 -80.8722 245° Southwest 354 407 32,000  Level Atlanta Center
Wed 08:56:53 PM 36.9839 -80.9933 246° West 344 396 32,000  Level Atlanta Center
Wed 08:57:53 PM 36.9447 -81.1014 246° West 344 396 32,000  Level Atlanta Center
Wed 08:58:53 PM 36.9058 -81.2144 247° West 344 396 32,000  Level Atlanta Center
Wed 08:59:53 PM 36.8667 -81.3222 246° West 344 396 32,000  Level Atlanta Center
Wed 09:00:53 PM 36.8292 -81.4194 244° Southwest 344 396 32,000  Level Atlanta Center
Wed 09:01:53 PM 36.7917 -81.5297 247° West 344 396 32,000  Level Atlanta Center
Wed 09:02:53 PM 36.7525 -81.6500 248° West 344 396 32,000  Level Atlanta Center
Wed 09:03:53 PM 36.7128 -81.7600 246° West 344 396 32,000  Level Atlanta Center
Wed 09:04:53 PM 36.6731 -81.8697 246° West 344 396 32,000  Level Atlanta Center
Wed 09:05:53 PM 36.6292 -81.9744 242° Southwest 344 396 32,000  Level Atlanta Center
Wed 09:06:53 PM 36.5744 -82.0742 236° Southwest 355 409 32,000  Level Atlanta Center
Wed 09:07:53 PM 36.5175 -82.1736 235° Southwest 360 414 32,000  Level Atlanta Center
Wed 09:08:53 PM 36.4628 -82.2706 235° Southwest 355 409 32,000  Level Atlanta Center
Wed 09:09:53 PM 36.4078 -82.3697 235° Southwest 355 409 32,000  Level Atlanta Center
Wed 09:10:53 PM 36.3506 -82.4689 234° Southwest 360 414 32,000  Level Atlanta Center
Wed 09:11:53 PM 36.2956 -82.5678 235° Southwest 360 414 32,000  Level Atlanta Center
Wed 09:12:53 PM 36.2361 -82.6642 233° Southwest 360 414 32,000  Level Atlanta Center
Wed 09:13:53 PM 36.1789 -82.7681 236° Southwest 360 414 32,000  Level Atlanta Center
Wed 09:14:53 PM 36.1236 -82.8667 235° Southwest 360 414 32,000  Level Atlanta Center
Wed 09:15:53 PM 36.0722 -82.9522 233° Southwest 360 414 32,000  Level Atlanta Center
Wed 09:16:53 PM 36.0167 -83.0531 236° Southwest 360 414 32,000  Level Atlanta Center
Wed 09:17:53 PM 35.9611 -83.1486 234° Southwest 360 414 32,000  Level Atlanta Center
Wed 09:18:53 PM 35.8994 -83.2569 235° Southwest 360 414 32,000  Level Atlanta Center
Wed 09:19:53 PM 35.8417 -83.3572 235° Southwest 360 414 32,000  Level Atlanta Center
Wed 09:20:53 PM 35.7858 -83.4578 236° Southwest 360 414 32,000  Level Atlanta Center
Wed 09:21:53 PM 35.7278 -83.5553 234° Southwest 360 414 32,000  Level Atlanta Center
Wed 09:22:53 PM 35.6697 -83.6528 234° Southwest 360 414 32,000  Level Atlanta Center
Wed 09:23:53 PM 35.6178 -83.7372 233° Southwest 360 414 32,000  Level Atlanta Center
Wed 09:24:53 PM 35.5594 -83.8369 234° Southwest 360 414 32,000  Level Atlanta Center
Wed 09:25:53 PM 35.5011 -83.9367 234° Southwest 360 414 32,000  Level Atlanta Center
Wed 09:26:53 PM 35.4428 -84.0361 234° Southwest 360 414 32,000  Level Atlanta Center
Wed 09:27:53 PM 35.3864 -84.1306 234° Southwest 360 414 32,000  Level Atlanta Center
Wed 09:29:00 PM 35.3213 -84.2327 232° Southwest  Level FlightAware Approximate
Wed 09:29:53 PM 35.2694 -84.3236 232° Southwest 360 414 32,000  Level Atlanta Center
Wed 09:30:53 PM 35.2108 -84.4225 234° Southwest 360 414 32,000  Level Atlanta Center
Wed 09:31:53 PM 35.1519 -84.5214 234° Southwest 365 420 32,000  Level Atlanta Center
Wed 09:32:53 PM 35.0931 -84.6175 233° Southwest 365 420 32,000  Level Atlanta Center
Wed 09:33:53 PM 35.0342 -84.7161 234° Southwest 365 420 32,000  Level Atlanta Center
Wed 09:34:53 PM 34.9753 -84.8144 234° Southwest 365 420 32,000  Level Atlanta Center
Wed 09:35:53 PM 34.9161 -84.9128 234° Southwest 365 420 32,000  Level Atlanta Center
Wed 09:36:53 PM 34.8569 -85.0083 233° Southwest 360 414 32,000  Level Atlanta Center
Wed 09:37:53 PM 34.7978 -85.1036 233° Southwest 360 414 32,000  Level Atlanta Center
Wed 09:38:53 PM 34.7383 -85.2042 234° Southwest 360 414 32,000  Level Atlanta Center
Wed 09:39:53 PM 34.6789 -85.3017 233° Southwest 365 420 32,000  Level Atlanta Center
Wed 09:40:53 PM 34.6194 -85.3992 233° Southwest 365 420 32,000  Level Atlanta Center
Wed 09:41:53 PM 34.5578 -85.4967 232° Southwest 365 420 32,000  Level Atlanta Center
Wed 09:42:53 PM 34.4961 -85.5939 232° Southwest 365 420 32,000  Level Atlanta Center
Wed 09:43:53 PM 34.4364 -85.6911 233° Southwest 365 420 32,000  Level Atlanta Center
Wed 09:44:53 PM 34.3703 -85.8006 234° Southwest 365 420 32,000  Level Atlanta Center
Wed 09:45:53 PM 34.3147 -85.8797 230° Southwest 359 413 32,000  Level Atlanta Center
Wed 09:46:53 PM 34.2547 -85.9814 234° Southwest 365 420 32,000  Level Atlanta Center
Wed 09:47:53 PM 34.1928 -86.0756 232° Southwest 365 420 32,000  Level Atlanta Center
Wed 09:48:53 PM 34.1306 -86.1744 233° Southwest 365 420 32,000  Level Atlanta Center
Wed 09:49:53 PM 34.0706 -86.2708 233° Southwest 365 420 32,000  Level Atlanta Center
Wed 09:50:53 PM 34.0081 -86.3694 233° Southwest 365 420 32,000  Level Atlanta Center
Wed 09:51:53 PM 33.9478 -86.4653 233° Southwest 365 420 32,000  Level Atlanta Center
Wed 09:52:53 PM 33.8853 -86.5611 232° Southwest 365 420 32,000  Level Atlanta Center
Wed 09:53:53 PM 33.8228 -86.6594 233° Southwest 365 420 32,000  Level Atlanta Center
Wed 09:54:53 PM 33.7622 -86.7550 233° Southwest 365 420 32,000  Level Atlanta Center
Wed 09:55:53 PM 33.7017 -86.8478 232° Southwest 365 420 32,000  Level Atlanta Center
Wed 09:56:53 PM 33.6369 -86.9431 231° Southwest 365 420 32,000  Level Atlanta Center
Wed 09:57:53 PM 33.5761 -87.0383 233° Southwest 365 420 32,000  Level Atlanta Center
Wed 09:58:53 PM 33.5111 -87.1356 231° Southwest 365 420 32,000  Level Atlanta Center
Wed 09:59:53 PM 33.4481 -87.2331 232° Southwest 365 420 32,000  Level Atlanta Center
Wed 10:00:53 PM 33.3853 -87.3253 231° Southwest 365 420 32,000  Level Atlanta Center
Wed 10:01:53 PM 33.3200 -87.4222 231° Southwest 365 420 32,000  Level Atlanta Center
Wed 10:02:53 PM 33.2567 -87.5192 232° Southwest 365 420 32,000  Level Atlanta Center
Wed 10:03:53 PM 33.1914 -87.6158 231° Southwest 365 420 32,000  Level Atlanta Center
Wed 10:05:21 PM 33.0894 -87.7686 231° Southwest 366 421 32,000  Level Memphis Center
Wed 10:06:21 PM 33.0308 -87.8522 230° Southwest 372 428 32,000  Level Memphis Center
Wed 10:07:21 PM 32.9722 -87.9503 235° Southwest 372 428 32,000  Level Memphis Center
Wed 10:08:21 PM 32.9050 -88.0436 229° Southwest 372 428 32,000  Level Memphis Center
Wed 10:09:21 PM 32.8378 -88.1394 230° Southwest 372 428 32,000  Level Memphis Center
Wed 10:10:21 PM 32.7728 -88.2350 231° Southwest 377 434 32,000  Level Memphis Center
Wed 10:11:21 PM 32.7097 -88.3303 232° Southwest 377 434 32,000  Level Memphis Center
Wed 10:12:21 PM 32.6442 -88.4231 230° Southwest 377 434 32,000  Level Memphis Center
Wed 10:13:21 PM 32.5789 -88.5181 231° Southwest 377 434 32,000  Level Memphis Center
Wed 10:14:21 PM 32.5114 -88.6131 230° Southwest 377 434 32,000  Level Memphis Center
Wed 10:15:22 PM 32.4458 -88.7081 231° Southwest 377 434 32,000  Level Memphis Center
Wed 10:16:21 PM 32.3825 -88.8025 232° Southwest 377 434 32,000  Level Memphis Center
Wed 10:17:21 PM 32.3019 -88.8828 220° Southwest 377 434 32,000  Level Memphis Center
Wed 10:18:21 PM 32.2172 -88.9603 218° Southwest 382 440 32,000  Level Memphis Center
Wed 10:19:21 PM 32.1347 -89.0447 221° Southwest 392 451 32,000  Level Memphis Center
Wed 10:20:21 PM 32.0519 -89.1244 219° Southwest 397 457 32,000  Level Memphis Center
Wed 10:21:21 PM 31.9692 -89.2014 218° Southwest 397 457 32,000 -644 Level Memphis Center
Wed 10:23:46 PM 31.7706 -89.3917 219° Southwest 387 445 29,800 -1,107 Descending Houston Center
Wed 10:24:47 PM 31.6894 -89.4689 219° Southwest 380 437 28,200 -1,131 Descending Houston Center
Wed 10:25:48 PM 31.6003 -89.5525 219° Southwest 368 423 27,500 -1,033 Descending Houston Center
Wed 10:26:49 PM 31.5217 -89.6292 220° Southwest 368 423 26,100 -1,426 Descending Houston Center
Wed 10:27:50 PM 31.4439 -89.7025 219° Southwest 359 413 24,600 -1,475 Descending Houston Center
Wed 10:28:51 PM 31.3664 -89.7747 219° Southwest 357 411 23,100 -1,475 Descending Houston Center
Wed 10:29:52 PM 31.2919 -89.8464 219° Southwest 349 402 21,600 -1,463 Descending Houston Center
Wed 10:30:54 PM 31.2064 -89.8969 207° Southwest 348 400 20,100 -1,463 Descending Houston Center
Wed 10:31:55 PM 31.1147 -89.9386 201° Southwest 353 406 18,600 -1,328 Descending Houston Center
Wed 10:32:56 PM 31.0261 -89.9808 202° Southwest 348 400 17,400 -1,475 Descending Houston Center
Wed 10:33:57 PM 30.9189 -90.0297 201° Southwest 346 398 15,600 -1,574 Descending Houston Center
Wed 10:34:58 PM 30.8319 -90.0700 202° Southwest 342 394 14,200 -1,402 Descending Houston Center
Wed 10:35:44 PM 30.7633 -90.1011 201° Southwest 330 380 13,100 -1,377 Descending Houston Center
Wed 10:35:59 PM 30.7478 -90.1081 201° Southwest 333 383 12,800 -1,377 Descending Houston Center
Wed 10:36:45 PM 30.6808 -90.1383 201° Southwest 314 361 11,700 -1,377 Descending Houston Center
Wed 10:37:00 PM 30.6675 -90.1447 202° Southwest 317 365 11,400 -700 Descending Houston Center
Wed 10:37:45 PM 30.6047 -90.1731 201° Southwest 295 339 11,000 -387 Descending Houston Center
Wed 10:38:02 PM 30.5917 -90.1783 199° South 299 344 11,000  Level Houston Center
Wed 10:38:46 PM 30.5281 -90.2003 197° South 293 337 11,000  Level Houston Center
Wed 10:39:03 PM 30.5139 -90.1994 177° South 294 338 11,000  Level Houston Center
Wed 10:39:46 PM 30.4444 -90.1939 176° South 303 349 11,000 -98 Level Houston Center
Wed 10:40:04 PM 30.4311 -90.1942 181° South 300 345 10,900 -1,574 Descending Houston Center
Wed 10:40:47 PM 30.3628 -90.1878 175° South 296 341 9,400 -1,770 Descending Houston Center
Wed 10:41:05 PM 30.3497 -90.1878 180° South 296 341 9,100 -1,967 Descending Houston Center
Wed 10:41:48 PM 30.2908 -90.2292 211° Southwest 278 320 7,400 -2,262 Descending Houston Center
Wed 10:42:06 PM 30.2781 -90.2481 232° Southwest 280 322 6,800 -1,778 Descending Houston Center
Wed 10:42:42 PM 30.2486 -90.2839 226° Southwest 272 313 5,800 -1,672 Descending Houston Center
Wed 10:43:07 PM 30.2275 -90.3128 230° Southwest 275 316 5,100 -1,672 Descending Houston Center
Wed 10:43:43 PM 30.1942 -90.3533 226° Southwest 265 305 4,100 -1,377 Descending Houston Center
Wed 10:44:08 PM 30.1783 -90.3750 230° Southwest 270 311 3,700 -500 Descending Houston Center
Wed 10:44:43 PM 30.1519 -90.4056 225° Southwest 205 236 3,600 -492 Descending Houston Center
Wed 10:45:09 PM 30.1411 -90.4219 233° Southwest 223 257 3,200 -1,180 Descending Houston Center
Wed 10:45:44 PM 30.1197 -90.4475 226° Southwest 161 185 2,400 -1,279 Descending Houston Center
Wed 10:46:10 PM 30.1083 -90.4622 228° Southwest 190 219 1,900 -358 Descending Houston Center
Wed 10:46:51 PM 30.0700 -90.4639 182° South 182 209 2,000 146 Climbing Houston Center

Login

Don't have an account? Register now (free) for customized features, flight alerts, and more!